createdAt,value
2023-05-20T00:02:09.593Z,15.61
2023-05-20T00:04:36.155Z,15.57
2023-05-20T00:07:03.825Z,15.44
2023-05-20T00:09:30.233Z,15.52
2023-05-20T00:11:56.654Z,15.59
2023-05-20T00:14:23.086Z,15.62
2023-05-20T00:16:49.542Z,15.65
2023-05-20T00:19:16.721Z,15.68
2023-05-20T00:21:43.628Z,15.65
2023-05-20T00:24:10.061Z,15.68
2023-05-20T00:26:36.498Z,15.72
2023-05-20T00:29:03.079Z,15.67
2023-05-20T00:31:29.541Z,15.65
2023-05-20T00:33:55.961Z,15.68
2023-05-20T00:36:22.427Z,15.65
2023-05-20T00:38:48.901Z,15.65
2023-05-20T00:41:15.537Z,15.65
2023-05-20T00:43:41.982Z,15.65
2023-05-20T00:46:10.393Z,15.58
2023-05-20T00:48:41.604Z,15.63
2023-05-20T00:51:08.329Z,15.61
2023-05-20T00:53:35.368Z,15.54
2023-05-20T00:56:02.417Z,15.54
2023-05-20T00:58:28.882Z,15.57
2023-05-20T01:00:55.523Z,15.58
2023-05-20T01:03:22.273Z,15.62
2023-05-20T01:05:49.038Z,15.60
2023-05-20T01:08:15.522Z,15.54
2023-05-20T01:10:46.693Z,15.54
2023-05-20T01:13:17.346Z,15.54
2023-05-20T01:15:48.215Z,15.59
2023-05-20T01:18:18.289Z,15.56
2023-05-20T01:20:50.988Z,15.55
2023-05-20T01:23:17.661Z,15.54
2023-05-20T01:25:44.082Z,15.53
2023-05-20T01:28:17.539Z,15.48
2023-05-20T01:30:56.211Z,15.40
2023-05-20T01:33:25.562Z,15.34
2023-05-20T01:35:52.190Z,15.39
2023-05-20T01:38:19.536Z,15.38
2023-05-20T01:40:47.519Z,15.34
2023-05-20T01:43:15.635Z,15.31
2023-05-20T01:45:44.735Z,15.30
2023-05-20T01:48:12.190Z,15.31
2023-05-20T01:50:39.190Z,15.30
2023-05-20T01:53:08.180Z,15.25
2023-05-20T01:55:34.794Z,15.19
2023-05-20T01:58:02.837Z,15.10
2023-05-20T02:00:29.372Z,15.13
2023-05-20T02:02:56.306Z,15.09
2023-05-20T02:05:22.851Z,15.04
2023-05-20T02:07:49.394Z,15.03
2023-05-20T02:10:16.131Z,14.99
2023-05-20T02:12:43.026Z,15.03
2023-05-20T02:15:09.840Z,15.01
2023-05-20T02:17:37.273Z,14.73
2023-05-20T02:20:07.602Z,14.82
2023-05-20T02:22:34.048Z,14.78
2023-05-20T02:25:00.708Z,14.78
2023-05-20T02:27:27.099Z,14.74
2023-05-20T02:29:53.710Z,14.75
2023-05-20T02:32:21.436Z,14.60
2023-05-20T02:34:47.856Z,14.69
2023-05-20T02:37:14.324Z,14.66
2023-05-20T02:39:40.737Z,14.68
2023-05-20T02:42:07.301Z,14.65
2023-05-20T02:44:33.750Z,14.67
2023-05-20T02:47:00.148Z,14.65
2023-05-20T02:49:26.693Z,14.67
2023-05-20T02:51:53.246Z,14.65
2023-05-20T02:54:19.675Z,14.65
2023-05-20T02:56:46.084Z,14.68
2023-05-20T02:59:12.510Z,14.66
2023-05-20T03:01:40.463Z,14.66
2023-05-20T03:04:07.247Z,14.56
2023-05-20T03:06:34.037Z,14.55
2023-05-20T03:09:00.456Z,14.57
2023-05-20T03:11:26.971Z,14.59
2023-05-20T03:13:53.443Z,14.61
2023-05-20T03:16:19.890Z,14.57
2023-05-20T03:18:46.550Z,14.60
2023-05-20T03:21:13.206Z,14.64
2023-05-20T03:23:39.612Z,14.52
2023-05-20T03:26:07.069Z,14.53
2023-05-20T03:28:33.592Z,14.55
2023-05-20T03:31:00.039Z,14.52
2023-05-20T03:33:26.872Z,14.55
2023-05-20T03:35:53.275Z,14.59
2023-05-20T03:38:19.770Z,14.50
2023-05-20T03:40:46.149Z,14.53
2023-05-20T03:43:12.654Z,14.51
2023-05-20T03:45:39.047Z,14.55
2023-05-20T03:48:05.956Z,14.50
2023-05-20T03:50:32.465Z,14.53
2023-05-20T03:52:58.911Z,14.48
2023-05-20T03:55:25.906Z,14.48
2023-05-20T03:57:52.585Z,14.52
2023-05-20T04:00:19.068Z,14.46
2023-05-20T04:02:45.706Z,14.50
2023-05-20T04:05:12.199Z,14.51
2023-05-20T04:07:38.707Z,14.45
2023-05-20T04:10:06.130Z,14.36
2023-05-20T04:12:32.683Z,14.41
2023-05-20T04:15:02.830Z,14.37
2023-05-20T04:17:30.165Z,14.43
2023-05-20T04:19:57.715Z,14.46
2023-05-20T04:22:24.335Z,14.46
2023-05-20T04:24:50.766Z,14.45
2023-05-20T04:27:17.230Z,14.46
2023-05-20T04:29:45.958Z,14.40
2023-05-20T04:32:18.608Z,14.52
2023-05-20T04:34:46.381Z,14.50
2023-05-20T04:37:13.264Z,14.49
2023-05-20T04:39:40.126Z,14.51
2023-05-20T04:42:06.563Z,14.45
2023-05-20T04:44:33.203Z,14.39
2023-05-20T04:46:59.645Z,14.41
2023-05-20T04:49:26.673Z,14.44
2023-05-20T04:51:55.233Z,14.46
2023-05-20T04:54:21.688Z,14.47
2023-05-20T04:56:48.116Z,14.48
2023-05-20T04:59:14.520Z,14.43
2023-05-20T05:01:41.004Z,14.46
2023-05-20T05:04:07.774Z,14.42
2023-05-20T05:06:34.225Z,14.42
2023-05-20T05:09:00.677Z,14.37
2023-05-20T05:11:27.148Z,14.39
2023-05-20T05:13:55.194Z,14.24
2023-05-20T05:16:21.628Z,14.23
2023-05-20T05:18:48.189Z,14.36
2023-05-20T05:21:14.597Z,14.45
2023-05-20T05:23:42.450Z,14.40
2023-05-20T05:26:08.984Z,14.49
2023-05-20T05:28:35.448Z,14.56
2023-05-20T05:31:02.290Z,14.63
2023-05-20T05:33:28.808Z,14.67
2023-05-20T05:35:59.366Z,14.73
2023-05-20T05:38:25.978Z,14.73
2023-05-20T05:40:53.234Z,14.84
2023-05-20T05:43:19.785Z,14.90
2023-05-20T05:45:46.190Z,14.91
2023-05-20T05:48:12.619Z,15.01
2023-05-20T05:50:39.106Z,15.04
2023-05-20T05:53:05.537Z,15.12
2023-05-20T05:55:32.181Z,15.19
2023-05-20T05:57:59.011Z,15.24
2023-05-20T06:00:25.505Z,15.29
2023-05-20T06:02:51.993Z,15.36
2023-05-20T06:05:18.560Z,15.36
2023-05-20T06:07:44.954Z,15.42
2023-05-20T06:10:11.518Z,15.46
2023-05-20T06:12:37.949Z,15.47
2023-05-20T06:15:04.688Z,15.51
2023-05-20T06:17:31.119Z,15.56
2023-05-20T06:19:57.756Z,15.52
2023-05-20T06:22:24.627Z,15.26
2023-05-20T06:24:51.097Z,15.23
2023-05-20T06:27:17.469Z,15.11
2023-05-20T06:29:44.068Z,15.25
2023-05-20T06:32:10.708Z,15.32
2023-05-20T06:34:37.598Z,15.38
2023-05-20T06:37:04.114Z,15.42
2023-05-20T06:39:30.538Z,15.36
2023-05-20T06:41:56.926Z,15.40
2023-05-20T06:44:23.336Z,15.53
2023-05-20T06:46:49.858Z,15.63
2023-05-20T06:49:16.317Z,15.71
2023-05-20T06:51:44.103Z,15.74
2023-05-20T06:54:10.710Z,15.84
2023-05-20T06:56:37.262Z,15.89
2023-05-20T06:59:03.639Z,15.89
2023-05-20T07:01:30.104Z,15.93
2023-05-20T07:03:56.996Z,16.03
2023-05-20T07:06:23.809Z,15.88
2023-05-20T07:08:50.203Z,15.94
2023-05-20T07:11:16.573Z,15.92
2023-05-20T07:13:43.007Z,15.98
2023-05-20T07:16:09.598Z,16.00
2023-05-20T07:18:36.355Z,16.09
2023-05-20T07:21:02.782Z,16.11
2023-05-20T07:23:29.167Z,16.11
2023-05-20T07:25:55.575Z,16.15
2023-05-20T07:28:22.710Z,16.08
2023-05-20T07:30:50.076Z,16.09
2023-05-20T07:33:17.619Z,16.17
2023-05-20T07:35:44.826Z,16.15
2023-05-20T07:38:12.617Z,16.18
2023-05-20T07:40:40.610Z,16.18
2023-05-20T07:43:08.072Z,16.27
2023-05-20T07:45:36.457Z,16.34
2023-05-20T07:48:04.065Z,16.38
2023-05-20T07:50:30.720Z,16.47
2023-05-20T07:52:57.169Z,16.47
2023-05-20T07:55:23.695Z,16.43
2023-05-20T07:57:50.258Z,16.40
2023-05-20T08:00:16.779Z,16.53
2023-05-20T08:02:43.321Z,16.53
2023-05-20T08:05:09.936Z,16.63
2023-05-20T08:07:36.309Z,16.66
2023-05-20T08:10:02.714Z,16.69
2023-05-20T08:12:29.229Z,16.74
2023-05-20T08:14:55.976Z,16.58
2023-05-20T08:17:22.388Z,16.48
2023-05-20T08:19:48.987Z,16.42
2023-05-20T08:22:15.361Z,16.65
2023-05-20T08:24:41.765Z,16.69
2023-05-20T08:27:08.188Z,16.86
2023-05-20T08:29:36.113Z,16.78
2023-05-20T08:32:02.496Z,16.72
2023-05-20T08:34:28.868Z,16.64
2023-05-20T08:36:55.276Z,16.70
2023-05-20T08:39:22.137Z,16.61
2023-05-20T08:41:48.647Z,16.61
2023-05-20T08:44:18.776Z,16.81
2023-05-20T08:46:45.969Z,16.77
2023-05-20T08:49:12.409Z,16.78
2023-05-20T08:51:39.609Z,16.97
2023-05-20T08:54:08.503Z,17.10
2023-05-20T08:56:35.690Z,17.03
2023-05-20T08:59:03.598Z,17.13
2023-05-20T09:01:30.068Z,17.16
2023-05-20T09:03:57.235Z,17.10
2023-05-20T09:06:24.032Z,17.01
2023-05-20T09:08:53.427Z,17.05
2023-05-20T09:11:22.206Z,16.78
2023-05-20T09:13:50.589Z,16.69
2023-05-20T09:16:17.077Z,16.82
2023-05-20T09:18:43.607Z,16.79
2023-05-20T09:21:10.196Z,17.03
2023-05-20T09:23:38.073Z,17.12
2023-05-20T09:26:04.452Z,17.17
2023-05-20T09:28:30.851Z,17.13
2023-05-20T09:31:00.835Z,17.05
2023-05-20T09:33:30.006Z,17.13
2023-05-20T09:36:08.157Z,17.23
2023-05-20T09:38:38.913Z,17.34
2023-05-20T09:41:11.987Z,17.25
2023-05-20T09:43:42.618Z,17.25
2023-05-20T09:46:09.848Z,17.24
2023-05-20T09:48:39.774Z,17.31
2023-05-20T09:51:07.702Z,17.33
2023-05-20T09:53:34.293Z,17.33
2023-05-20T09:56:01.118Z,17.33
2023-05-20T09:58:29.447Z,17.49
2023-05-20T10:00:56.063Z,17.42
2023-05-20T10:03:28.082Z,17.45
2023-05-20T10:06:34.286Z,17.54
2023-05-20T10:09:29.237Z,17.66
2023-05-20T10:12:10.992Z,17.65
2023-05-20T10:15:07.256Z,17.78
2023-05-20T10:17:53.936Z,17.74
2023-05-20T10:20:20.413Z,17.51
2023-05-20T10:22:57.086Z,17.70
2023-05-20T10:25:28.061Z,17.87
2023-05-20T10:28:10.391Z,17.95
2023-05-20T10:30:37.419Z,17.93
2023-05-20T10:33:06.747Z,18.00
2023-05-20T10:35:33.438Z,18.12
2023-05-20T10:38:11.479Z,18.12
2023-05-20T10:40:38.176Z,17.84
2023-05-20T10:43:11.742Z,17.73
2023-05-20T10:45:56.005Z,17.89
2023-05-20T10:48:31.450Z,17.81
2023-05-20T10:51:00.196Z,17.81
2023-05-20T10:53:33.996Z,17.76
2023-05-20T10:56:01.297Z,17.71
2023-05-20T10:58:30.107Z,17.78
2023-05-20T11:00:56.773Z,17.83
2023-05-20T11:03:24.277Z,17.90
2023-05-20T11:05:51.428Z,17.95
2023-05-20T11:08:28.675Z,17.95
2023-05-20T11:10:57.275Z,17.98
2023-05-20T11:13:23.773Z,17.94
2023-05-20T11:15:50.419Z,17.99
2023-05-20T11:18:18.904Z,18.01
2023-05-20T11:20:46.869Z,17.97
2023-05-20T11:23:15.353Z,17.96
2023-05-20T11:25:42.033Z,17.85
2023-05-20T11:28:12.963Z,17.85
2023-05-20T11:30:39.956Z,17.68
2023-05-20T11:33:06.740Z,17.56
2023-05-20T11:35:33.313Z,17.66
2023-05-20T11:38:04.591Z,17.76
2023-05-20T11:40:38.953Z,17.73
2023-05-20T11:43:14.699Z,17.73
2023-05-20T11:45:45.911Z,17.82
2023-05-20T11:48:13.042Z,17.83
2023-05-20T11:50:41.434Z,18.01
2023-05-20T11:53:14.862Z,18.33
2023-05-20T11:55:52.201Z,18.39
2023-05-20T11:58:21.257Z,18.47
2023-05-20T12:00:54.773Z,18.58
2023-05-20T12:03:26.123Z,18.51
2023-05-20T12:05:53.115Z,18.24
2023-05-20T12:08:19.508Z,18.33
2023-05-20T12:10:45.908Z,18.23
2023-05-20T12:13:13.465Z,18.19
2023-05-20T12:15:40.047Z,18.17
2023-05-20T12:18:06.719Z,18.13
2023-05-20T12:20:37.008Z,18.37
2023-05-20T12:23:03.990Z,18.54
2023-05-20T12:25:30.548Z,18.73
2023-05-20T12:27:56.972Z,18.89
2023-05-20T12:30:23.902Z,19.00
2023-05-20T12:32:51.923Z,19.24
2023-05-20T12:35:25.804Z,19.37
2023-05-20T12:37:52.552Z,19.35
2023-05-20T12:40:18.911Z,19.33
2023-05-20T12:42:45.356Z,19.40
2023-05-20T12:45:12.588Z,19.36
2023-05-20T12:47:39.031Z,19.28
2023-05-20T12:50:06.222Z,19.33
2023-05-20T12:52:32.618Z,19.38
2023-05-20T12:54:58.994Z,19.46
2023-05-20T12:57:25.734Z,19.53
2023-05-20T12:59:52.279Z,19.74
2023-05-20T13:02:19.199Z,19.85
2023-05-20T13:04:45.577Z,19.66
2023-05-20T13:07:12.036Z,19.62
2023-05-20T13:09:38.555Z,19.75
2023-05-20T13:12:05.247Z,19.79
2023-05-20T13:14:31.908Z,20.04
2023-05-20T13:16:58.490Z,20.08
2023-05-20T13:19:25.033Z,20.01
2023-05-20T13:21:52.021Z,20.07
2023-05-20T13:24:18.464Z,20.27
2023-05-20T13:26:45.546Z,20.31
2023-05-20T13:29:12.599Z,20.33
2023-05-20T13:31:39.275Z,20.30
2023-05-20T13:34:05.915Z,20.35
2023-05-20T13:36:32.783Z,20.35
2023-05-20T13:38:59.244Z,20.45
2023-05-20T13:41:26.607Z,20.50
2023-05-20T13:43:53.277Z,20.38
2023-05-20T13:46:19.720Z,20.44
2023-05-20T13:48:46.112Z,20.48
2023-05-20T13:51:12.511Z,20.55
2023-05-20T13:53:39.400Z,20.54
2023-05-20T13:56:05.929Z,20.62
2023-05-20T13:58:32.440Z,20.68
2023-05-20T14:00:59.289Z,20.81
2023-05-20T14:03:25.859Z,20.72
2023-05-20T14:05:52.880Z,20.80
2023-05-20T14:08:19.232Z,21.02
2023-05-20T14:10:45.630Z,21.13
2023-05-20T14:13:12.004Z,21.14
2023-05-20T14:15:38.428Z,21.09
2023-05-20T14:18:04.971Z,21.30
2023-05-20T14:20:31.567Z,21.48
2023-05-20T14:22:58.063Z,21.47
2023-05-20T14:25:24.465Z,21.47
2023-05-20T14:27:50.962Z,21.57
2023-05-20T14:30:17.414Z,21.58
2023-05-20T14:32:43.869Z,21.63
2023-05-20T14:35:10.438Z,21.66
2023-05-20T14:37:36.839Z,21.79
2023-05-20T14:40:05.251Z,21.77
2023-05-20T14:42:31.668Z,21.90
2023-05-20T14:44:58.022Z,21.97
2023-05-20T14:47:24.416Z,21.95
2023-05-20T14:49:50.841Z,21.93
2023-05-20T14:52:18.112Z,21.86
2023-05-20T14:54:44.604Z,21.79
2023-05-20T14:57:11.229Z,21.71
2023-05-20T14:59:37.605Z,21.63
2023-05-20T15:02:05.554Z,21.64
2023-05-20T15:04:33.239Z,21.66
2023-05-20T15:07:00.106Z,21.65
2023-05-20T15:09:26.737Z,21.61
2023-05-20T15:11:53.587Z,21.58
2023-05-20T15:14:20.107Z,21.62
2023-05-20T15:16:47.058Z,21.59
2023-05-20T15:19:13.623Z,21.62
2023-05-20T15:21:40.445Z,21.66
2023-05-20T15:24:06.864Z,21.75
2023-05-20T15:26:33.698Z,21.62
2023-05-20T15:29:00.067Z,21.69
2023-05-20T15:31:26.452Z,21.66
2023-05-20T15:33:53.028Z,21.69
2023-05-20T15:36:19.520Z,21.73
2023-05-20T15:38:45.998Z,21.71
2023-05-20T15:41:13.416Z,21.75
2023-05-20T15:43:39.950Z,21.74
2023-05-20T15:46:06.365Z,21.74
2023-05-20T15:48:34.749Z,21.77
2023-05-20T15:51:01.365Z,21.76
2023-05-20T15:53:27.743Z,21.77
2023-05-20T15:55:54.206Z,21.81
2023-05-20T15:58:20.612Z,21.86
2023-05-20T16:00:47.720Z,21.91
2023-05-20T16:03:14.390Z,21.83
2023-05-20T16:05:40.860Z,21.81
2023-05-20T16:08:07.245Z,21.82
2023-05-20T16:10:34.612Z,21.78
2023-05-20T16:13:01.504Z,21.77
2023-05-20T16:15:28.097Z,21.76
2023-05-20T16:17:54.467Z,21.74
2023-05-20T16:20:20.929Z,21.76
2023-05-20T16:22:47.324Z,21.79
2023-05-20T16:25:14.158Z,21.81
2023-05-20T16:27:40.523Z,21.90
2023-05-20T16:30:07.658Z,22.01
2023-05-20T16:32:34.060Z,22.00
2023-05-20T16:35:01.554Z,22.07
2023-05-20T16:37:28.142Z,22.19
2023-05-20T16:39:54.509Z,22.25
2023-05-20T16:42:20.895Z,22.32
2023-05-20T16:44:49.911Z,22.35
2023-05-20T16:47:16.639Z,22.37
2023-05-20T16:49:43.041Z,22.35
2023-05-20T16:52:09.697Z,22.33
2023-05-20T16:54:36.237Z,22.37
2023-05-20T16:57:03.707Z,22.30
2023-05-20T16:59:31.678Z,22.29
2023-05-20T17:01:58.256Z,22.19
2023-05-20T17:04:24.755Z,22.17
2023-05-20T17:06:51.201Z,22.12
2023-05-20T17:09:17.665Z,22.06
2023-05-20T17:11:44.401Z,22.05
2023-05-20T17:14:11.012Z,22.03
2023-05-20T17:16:37.455Z,21.96
2023-05-20T17:19:03.903Z,21.92
2023-05-20T17:21:31.022Z,21.85
2023-05-20T17:23:57.435Z,21.84
2023-05-20T17:26:23.996Z,21.82
2023-05-20T17:28:50.397Z,21.76
2023-05-20T17:31:16.792Z,21.74
2023-05-20T17:33:43.269Z,21.68
2023-05-20T17:36:09.822Z,21.68
2023-05-20T17:38:36.277Z,21.65
2023-05-20T17:41:02.679Z,21.54
2023-05-20T17:43:29.085Z,21.52
2023-05-20T17:45:55.644Z,21.49
2023-05-20T17:48:22.049Z,21.44
2023-05-20T17:50:48.498Z,21.42
2023-05-20T17:53:14.878Z,21.39
2023-05-20T17:55:41.537Z,21.37
2023-05-20T17:58:07.893Z,21.32
2023-05-20T18:00:41.810Z,21.26
2023-05-20T18:03:09.088Z,21.25
2023-05-20T18:05:35.654Z,21.25
2023-05-20T18:08:02.225Z,21.22
2023-05-20T18:10:28.788Z,21.17
2023-05-20T18:12:55.297Z,21.19
2023-05-20T18:15:22.239Z,21.16
2023-05-20T18:17:48.955Z,21.13
2023-05-20T18:20:15.507Z,21.11
2023-05-20T18:22:45.175Z,21.13
2023-05-20T18:25:15.377Z,21.12
2023-05-20T18:27:42.578Z,21.11
2023-05-20T18:30:10.150Z,21.08
2023-05-20T18:32:36.628Z,21.06
2023-05-20T18:35:03.064Z,21.02
2023-05-20T18:37:29.590Z,21.01
2023-05-20T18:39:59.057Z,21.01
2023-05-20T18:42:25.962Z,20.99
2023-05-20T18:44:53.220Z,20.96
2023-05-20T18:47:19.768Z,20.95
2023-05-20T18:49:46.190Z,20.93
2023-05-20T18:52:12.636Z,20.58
2023-05-20T18:54:39.115Z,20.60
2023-05-20T18:57:06.103Z,20.67
2023-05-20T18:59:32.600Z,20.68
2023-05-20T19:01:59.122Z,20.69
2023-05-20T19:04:25.968Z,20.67
2023-05-20T19:06:52.955Z,20.66
2023-05-20T19:09:20.114Z,20.67
2023-05-20T19:11:46.577Z,20.64
2023-05-20T19:14:13.101Z,20.68
2023-05-20T19:16:39.721Z,20.63
2023-05-20T19:19:06.314Z,20.65
2023-05-20T19:21:33.336Z,20.62
2023-05-20T19:23:59.999Z,20.53
2023-05-20T19:26:26.713Z,20.42
2023-05-20T19:28:53.109Z,20.45
2023-05-20T19:31:22.504Z,20.44
2023-05-20T19:33:50.051Z,20.44
2023-05-20T19:36:17.123Z,20.42
2023-05-20T19:38:44.286Z,20.41
2023-05-20T19:41:12.615Z,20.36
2023-05-20T19:43:39.226Z,20.32
2023-05-20T19:46:06.613Z,20.25
2023-05-20T19:48:33.737Z,20.25
2023-05-20T19:51:00.215Z,20.19
2023-05-20T19:53:26.640Z,20.21
2023-05-20T19:55:53.039Z,20.22
2023-05-20T19:58:19.466Z,20.19
2023-05-20T20:00:45.847Z,20.15
2023-05-20T20:03:12.230Z,20.16
2023-05-20T20:05:38.862Z,20.15
2023-05-20T20:08:05.722Z,20.13
2023-05-20T20:10:34.417Z,20.10
2023-05-20T20:13:00.877Z,20.08
2023-05-20T20:15:28.118Z,20.04
2023-05-20T20:17:54.579Z,20.04
2023-05-20T20:20:21.546Z,20.02
2023-05-20T20:22:47.983Z,19.91
2023-05-20T20:25:14.462Z,19.84
2023-05-20T20:27:43.873Z,19.80
2023-05-20T20:30:14.070Z,19.76
2023-05-20T20:32:41.168Z,19.78
2023-05-20T20:35:08.239Z,19.66
2023-05-20T20:37:35.957Z,19.56
2023-05-20T20:40:12.873Z,19.65
2023-05-20T20:42:41.590Z,19.69
2023-05-20T20:45:08.569Z,19.70
2023-05-20T20:47:35.064Z,19.46
2023-05-20T20:50:03.538Z,19.42
2023-05-20T20:52:30.125Z,19.33
2023-05-20T20:54:57.384Z,19.40
2023-05-20T20:57:25.057Z,19.45
2023-05-20T20:59:53.882Z,19.38
2023-05-20T21:02:20.702Z,19.30
2023-05-20T21:04:47.278Z,19.09
2023-05-20T21:07:17.812Z,19.06
2023-05-20T21:09:45.383Z,18.94
2023-05-20T21:12:11.795Z,19.07
2023-05-20T21:14:38.221Z,19.16
2023-05-20T21:17:04.983Z,19.21
2023-05-20T21:19:31.745Z,19.14
2023-05-20T21:21:58.233Z,19.18
2023-05-20T21:24:24.669Z,19.17
2023-05-20T21:26:51.295Z,19.14
2023-05-20T21:29:17.739Z,19.10
2023-05-20T21:31:44.235Z,19.11
2023-05-20T21:34:10.673Z,19.13
2023-05-20T21:36:37.325Z,19.12
2023-05-20T21:39:03.850Z,19.10
2023-05-20T21:41:30.290Z,19.13
2023-05-20T21:43:56.805Z,19.11
2023-05-20T21:46:23.383Z,19.06
2023-05-20T21:48:49.888Z,19.06
2023-05-20T21:51:16.366Z,19.04
2023-05-20T21:53:42.781Z,18.93
2023-05-20T21:56:09.225Z,18.96
2023-05-20T21:58:40.677Z,18.98
2023-05-20T22:01:09.422Z,18.96
2023-05-20T22:03:36.216Z,18.91
2023-05-20T22:06:04.936Z,18.90
2023-05-20T22:08:33.679Z,18.81
2023-05-20T22:11:05.295Z,18.85
2023-05-20T22:13:32.980Z,18.79
2023-05-20T22:16:01.350Z,18.79
2023-05-20T22:18:29.081Z,18.69
2023-05-20T22:20:56.196Z,18.69
2023-05-20T22:23:22.618Z,18.66
2023-05-20T22:25:49.088Z,18.70
2023-05-20T22:28:16.263Z,18.72
2023-05-20T22:30:43.280Z,18.69
2023-05-20T22:33:09.906Z,18.69
2023-05-20T22:35:36.601Z,18.56
2023-05-20T22:38:04.002Z,18.53
2023-05-20T22:40:30.556Z,18.55
2023-05-20T22:42:56.984Z,18.49
2023-05-20T22:45:23.385Z,18.36
2023-05-20T22:47:49.888Z,18.37
2023-05-20T22:50:16.378Z,18.41
2023-05-20T22:52:42.809Z,18.36
2023-05-20T22:55:09.524Z,18.36
2023-05-20T22:57:36.918Z,18.34
2023-05-20T23:00:05.062Z,18.33
2023-05-20T23:02:31.523Z,18.18
2023-05-20T23:04:58.014Z,18.19
2023-05-20T23:07:24.536Z,18.23
2023-05-20T23:09:51.365Z,18.23
2023-05-20T23:12:17.857Z,18.22
2023-05-20T23:14:44.242Z,18.19
2023-05-20T23:17:10.772Z,18.09
2023-05-20T23:19:37.280Z,18.12
2023-05-20T23:22:03.968Z,18.10
2023-05-20T23:24:30.363Z,18.11
2023-05-20T23:26:57.085Z,18.06
2023-05-20T23:29:23.574Z,18.03
2023-05-20T23:31:50.996Z,18.02
2023-05-20T23:34:17.960Z,17.99
2023-05-20T23:36:45.639Z,17.97
2023-05-20T23:39:12.311Z,17.99
2023-05-20T23:41:38.865Z,17.96
2023-05-20T23:44:05.278Z,17.93
2023-05-20T23:46:31.840Z,17.85
2023-05-20T23:49:00.500Z,17.82
2023-05-20T23:51:27.867Z,17.86
2023-05-20T23:53:54.890Z,17.85
2023-05-20T23:56:21.579Z,17.77
2023-05-20T23:58:48.201Z,17.77
